createdAt,value
2022-10-19T00:01:07.726Z,5.90
2022-10-19T00:03:35.862Z,5.92
2022-10-19T00:06:21.900Z,5.83
2022-10-19T00:08:48.363Z,5.99
2022-10-19T00:11:15.047Z,6.12
2022-10-19T00:13:41.502Z,6.03
2022-10-19T00:16:11.747Z,5.78
2022-10-19T00:18:38.730Z,5.80
2022-10-19T00:21:07.547Z,6.17
2022-10-19T00:23:34.319Z,6.05
2022-10-19T00:26:01.047Z,6.05
2022-10-19T00:28:28.709Z,6.22
2022-10-19T00:30:55.311Z,6.14
2022-10-19T00:33:21.797Z,5.83
2022-10-19T00:35:50.570Z,5.87
2022-10-19T00:38:18.392Z,6.12
2022-10-19T00:40:46.022Z,6.01
2022-10-19T00:43:25.192Z,5.97
2022-10-19T00:45:51.831Z,5.92
2022-10-19T00:48:27.221Z,5.70
2022-10-19T00:50:58.248Z,5.63
2022-10-19T00:53:28.651Z,5.52
2022-10-19T00:55:57.696Z,5.52
2022-10-19T00:58:24.421Z,5.40
2022-10-19T01:00:51.087Z,5.60
2022-10-19T01:03:18.255Z,5.51
2022-10-19T01:05:44.750Z,5.32
2022-10-19T01:08:12.036Z,5.16
2022-10-19T01:11:14.721Z,5.04
2022-10-19T01:14:01.114Z,5.32
2022-10-19T01:16:52.956Z,5.13
2022-10-19T01:19:34.557Z,4.92
2022-10-19T01:22:31.270Z,5.03
2022-10-19T01:25:19.381Z,5.21
2022-10-19T01:28:07.539Z,5.15
2022-10-19T01:30:52.716Z,5.17
2022-10-19T01:33:37.556Z,5.22
2022-10-19T01:36:37.044Z,5.31
2022-10-19T01:39:23.052Z,5.36
2022-10-19T01:42:01.900Z,5.49
2022-10-19T01:44:31.316Z,5.14
2022-10-19T01:47:08.434Z,5.03
2022-10-19T01:49:41.829Z,4.87
2022-10-19T01:52:13.910Z,4.87
2022-10-19T01:54:47.248Z,4.82
2022-10-19T01:57:23.534Z,4.64
2022-10-19T01:59:53.216Z,4.71
2022-10-19T02:02:21.471Z,4.81
2022-10-19T02:04:50.902Z,4.75
2022-10-19T02:07:21.627Z,4.87
2022-10-19T02:09:48.485Z,4.96
2022-10-19T02:12:16.849Z,4.89
2022-10-19T02:14:47.545Z,4.96
2022-10-19T02:17:23.927Z,4.89
2022-10-19T02:19:51.465Z,4.86
2022-10-19T02:22:18.047Z,4.65
2022-10-19T02:24:44.571Z,4.65
2022-10-19T02:27:11.512Z,4.47
2022-10-19T02:29:39.522Z,4.67
2022-10-19T02:32:07.099Z,4.77
2022-10-19T02:34:35.389Z,4.86
2022-10-19T02:37:02.106Z,4.71
2022-10-19T02:39:29.334Z,4.79
2022-10-19T02:42:11.813Z,4.52
2022-10-19T02:44:50.644Z,4.41
2022-10-19T02:47:19.630Z,4.66
2022-10-19T02:49:49.055Z,4.72
2022-10-19T02:52:15.501Z,4.81
2022-10-19T02:54:44.493Z,4.67
2022-10-19T02:57:24.266Z,4.64
2022-10-19T02:59:52.147Z,4.82
2022-10-19T03:02:20.435Z,4.71
2022-10-19T03:07:20.971Z,4.55
2022-10-19T03:09:47.728Z,4.65
2022-10-19T03:12:14.913Z,4.48
2022-10-19T03:14:41.629Z,4.53
2022-10-19T03:17:08.267Z,4.41
2022-10-19T03:19:36.125Z,4.51
2022-10-19T03:22:02.957Z,4.31
2022-10-19T03:24:30.579Z,4.59
2022-10-19T03:26:57.502Z,4.73
2022-10-19T03:29:24.008Z,4.32
2022-10-19T03:31:50.523Z,4.60
2022-10-19T03:34:17.208Z,4.44
2022-10-19T03:36:43.672Z,4.42
2022-10-19T03:39:13.161Z,4.47
2022-10-19T03:41:40.082Z,4.60
2022-10-19T03:44:08.960Z,4.52
2022-10-19T03:46:36.587Z,4.72
2022-10-19T03:49:04.343Z,4.59
2022-10-19T03:51:32.464Z,4.69
2022-10-19T03:54:03.321Z,4.46
2022-10-19T03:56:31.687Z,4.57
2022-10-19T03:59:00.835Z,4.48
2022-10-19T04:01:36.434Z,4.46
2022-10-19T04:04:09.860Z,4.46
2022-10-19T04:06:39.621Z,4.50
2022-10-19T04:09:08.248Z,4.55
2022-10-19T04:11:35.871Z,4.76
2022-10-19T04:14:31.921Z,4.47
2022-10-19T04:17:00.845Z,4.84
2022-10-19T04:19:27.326Z,4.75
2022-10-19T04:21:53.980Z,4.68
2022-10-19T04:24:20.481Z,4.59
2022-10-19T04:26:50.613Z,4.56
2022-10-19T04:29:18.893Z,4.70
2022-10-19T04:31:45.985Z,4.74
2022-10-19T04:34:12.493Z,4.74
2022-10-19T04:36:39.080Z,4.69
2022-10-19T04:39:06.703Z,4.95
2022-10-19T04:41:33.541Z,4.92
2022-10-19T04:44:02.571Z,5.26
2022-10-19T04:46:30.419Z,4.96
2022-10-19T04:48:57.413Z,4.82
2022-10-19T04:51:24.375Z,4.43
2022-10-19T04:53:51.671Z,4.65
2022-10-19T04:56:23.321Z,4.62
2022-10-19T04:58:49.937Z,4.78
2022-10-19T05:01:19.809Z,4.53
2022-10-19T05:03:47.604Z,5.05
2022-10-19T05:06:15.670Z,4.63
2022-10-19T05:08:42.168Z,4.65
2022-10-19T05:11:14.374Z,4.87
2022-10-19T05:13:42.044Z,4.56
2022-10-19T05:16:13.225Z,4.71
2022-10-19T05:18:40.409Z,4.55
2022-10-19T05:21:10.346Z,4.43
2022-10-19T05:23:37.791Z,4.29
2022-10-19T05:26:10.291Z,4.58
2022-10-19T05:28:37.575Z,4.58
2022-10-19T05:31:15.292Z,4.83
2022-10-19T05:33:42.889Z,4.67
2022-10-19T05:36:16.735Z,4.75
2022-10-19T05:38:44.687Z,4.82
2022-10-19T05:41:11.316Z,5.19
2022-10-19T05:43:37.921Z,5.06
2022-10-19T05:46:10.653Z,4.98
2022-10-19T05:48:37.314Z,4.89
2022-10-19T05:51:05.780Z,4.95
2022-10-19T05:53:33.953Z,5.31
2022-10-19T05:56:00.828Z,5.55
2022-10-19T05:58:30.005Z,5.59
2022-10-19T06:01:00.780Z,5.55
2022-10-19T06:03:28.483Z,5.49
2022-10-19T06:05:58.868Z,5.38
2022-10-19T06:08:25.672Z,5.41
2022-10-19T06:10:52.324Z,5.52
2022-10-19T06:13:20.165Z,5.57
2022-10-19T06:15:51.217Z,5.50
2022-10-19T06:18:17.849Z,5.46
2022-10-19T06:20:45.611Z,5.17
2022-10-19T06:23:12.221Z,5.51
2022-10-19T06:25:38.770Z,5.53
2022-10-19T06:28:05.396Z,5.59
2022-10-19T06:30:31.980Z,5.79
2022-10-19T06:32:58.965Z,5.82
2022-10-19T06:35:25.703Z,5.61
2022-10-19T06:37:52.346Z,5.74
2022-10-19T06:40:18.996Z,5.87
2022-10-19T06:42:45.715Z,6.20
2022-10-19T06:45:12.253Z,5.66
2022-10-19T06:47:39.042Z,5.87
2022-10-19T06:50:07.299Z,5.67
2022-10-19T06:52:35.320Z,6.06
2022-10-19T06:55:02.707Z,5.94
2022-10-19T06:57:29.362Z,5.85
2022-10-19T06:59:55.832Z,6.05
2022-10-19T07:02:22.909Z,5.79
2022-10-19T07:04:49.756Z,5.81
2022-10-19T07:07:16.540Z,6.10
2022-10-19T07:09:47.749Z,6.25
2022-10-19T07:12:14.219Z,6.28
2022-10-19T07:14:40.739Z,6.08
2022-10-19T07:17:08.042Z,6.20
2022-10-19T07:19:34.655Z,6.27
2022-10-19T07:22:01.273Z,6.45
2022-10-19T07:24:27.886Z,6.26
2022-10-19T07:26:54.411Z,6.60
2022-10-19T07:29:21.400Z,6.75
2022-10-19T07:31:48.145Z,6.62
2022-10-19T07:34:15.102Z,6.69
2022-10-19T07:36:45.223Z,8.70
2022-10-19T07:39:12.020Z,7.79
2022-10-19T07:41:39.103Z,7.21
2022-10-19T07:44:05.828Z,7.28
2022-10-19T07:46:32.742Z,6.42
2022-10-19T07:49:00.769Z,6.22
2022-10-19T07:54:03.174Z,6.48
2022-10-19T07:56:30.143Z,6.87
2022-10-19T07:58:59.267Z,6.96
2022-10-19T08:01:28.960Z,6.92
2022-10-19T08:04:43.171Z,7.34
2022-10-19T08:06:44.169Z,7.20
2022-10-19T08:09:15.583Z,8.87
2022-10-19T08:11:49.409Z,7.60
2022-10-19T08:14:15.871Z,7.53
2022-10-19T08:16:42.329Z,7.68
2022-10-19T08:19:12.612Z,7.66
2022-10-19T08:21:42.069Z,7.63
2022-10-19T08:24:09.879Z,7.61
2022-10-19T08:26:38.802Z,7.87
2022-10-19T08:29:14.500Z,7.70
2022-10-19T08:31:42.905Z,8.17
2022-10-19T08:34:09.980Z,8.05
2022-10-19T08:36:36.508Z,8.40
2022-10-19T08:39:06.001Z,8.12
2022-10-19T08:42:01.925Z,9.48
2022-10-19T08:44:34.396Z,8.37
2022-10-19T08:47:25.712Z,9.39
2022-10-19T08:49:52.414Z,7.97
2022-10-19T08:52:34.254Z,7.63
2022-10-19T08:55:15.127Z,8.64
2022-10-19T08:58:23.903Z,8.89
2022-10-19T09:01:10.992Z,8.34
2022-10-19T09:04:04.626Z,8.34
2022-10-19T09:06:51.386Z,8.55
2022-10-19T09:09:20.883Z,9.55
2022-10-19T09:11:51.090Z,8.30
2022-10-19T09:14:48.823Z,8.74
2022-10-19T09:17:16.267Z,8.92
2022-10-19T09:19:42.982Z,9.18
2022-10-19T09:22:26.274Z,9.47
2022-10-19T09:25:00.756Z,9.23
2022-10-19T09:27:38.645Z,8.96
2022-10-19T09:30:20.812Z,9.43
2022-10-19T09:32:51.681Z,8.90
2022-10-19T09:35:27.968Z,9.46
2022-10-19T09:37:56.333Z,9.85
2022-10-19T09:40:29.155Z,9.77
2022-10-19T09:42:56.305Z,9.59
2022-10-19T09:45:40.469Z,9.35
2022-10-19T09:48:20.961Z,9.56
2022-10-19T09:51:01.365Z,9.67
2022-10-19T09:53:29.832Z,9.56
2022-10-19T09:56:04.974Z,9.99
2022-10-19T09:58:33.267Z,9.90
2022-10-19T10:01:02.417Z,11.35
2022-10-19T10:03:35.652Z,10.52
2022-10-19T10:06:13.398Z,10.20
2022-10-19T10:08:53.913Z,10.23
2022-10-19T10:11:48.314Z,10.07
2022-10-19T10:14:28.712Z,9.63
2022-10-19T10:17:17.130Z,9.57
2022-10-19T10:20:05.907Z,10.43
2022-10-19T10:22:35.886Z,10.82
2022-10-19T10:25:13.549Z,10.51
2022-10-19T10:27:40.116Z,11.32
2022-10-19T10:30:16.841Z,11.65
2022-10-19T10:32:49.916Z,11.37
2022-10-19T10:35:18.796Z,11.50
2022-10-19T10:37:47.082Z,11.22
2022-10-19T10:40:24.147Z,11.04
2022-10-19T10:42:54.876Z,11.61
2022-10-19T10:45:46.731Z,12.13
2022-10-19T10:48:26.981Z,11.83
2022-10-19T10:50:53.852Z,12.41
2022-10-19T10:53:32.505Z,12.13
2022-10-19T10:56:00.639Z,12.56
2022-10-19T10:58:48.097Z,12.56
2022-10-19T11:01:30.020Z,12.34
2022-10-19T11:04:22.311Z,11.97
2022-10-19T11:06:59.044Z,11.21
2022-10-19T11:09:36.347Z,12.10
2022-10-19T11:12:06.553Z,12.26
2022-10-19T11:14:38.626Z,12.47
2022-10-19T11:17:31.852Z,12.80
2022-10-19T11:19:58.650Z,13.07
2022-10-19T11:22:40.061Z,13.17
2022-10-19T11:25:21.661Z,12.87
2022-10-19T11:28:00.334Z,12.31
2022-10-19T11:30:30.493Z,11.42
2022-10-19T11:33:12.017Z,10.95
2022-10-19T11:35:53.610Z,10.52
2022-10-19T11:38:43.504Z,10.30
2022-10-19T11:41:22.046Z,9.62
2022-10-19T11:44:13.444Z,9.98
2022-10-19T11:46:55.240Z,9.34
2022-10-19T11:49:39.831Z,8.86
2022-10-19T11:52:23.837Z,9.16
2022-10-19T11:55:18.005Z,9.20
2022-10-19T11:57:57.379Z,8.74
2022-10-19T12:00:39.924Z,8.77
2022-10-19T12:03:42.535Z,8.51
2022-10-19T12:06:18.239Z,8.21
2022-10-19T12:09:06.553Z,8.57
2022-10-19T12:11:51.477Z,8.30
2022-10-19T12:14:25.608Z,7.54
2022-10-19T12:16:56.905Z,7.80
2022-10-19T12:19:33.250Z,8.17
2022-10-19T12:22:03.622Z,8.00
2022-10-19T12:24:33.848Z,8.03
2022-10-19T12:27:01.853Z,7.79
2022-10-19T12:29:34.223Z,8.45
2022-10-19T12:32:04.619Z,7.84
2022-10-19T12:34:52.582Z,7.86
2022-10-19T12:37:33.108Z,8.08
2022-10-19T12:40:02.614Z,7.74
2022-10-19T12:42:55.331Z,10.79
2022-10-19T12:45:31.939Z,8.18
2022-10-19T12:48:10.438Z,7.15
2022-10-19T12:50:49.096Z,6.56
2022-10-19T12:56:01.978Z,7.43
2022-10-19T12:58:38.065Z,7.66
2022-10-19T13:01:07.237Z,7.38
2022-10-19T13:03:40.119Z,8.57
2022-10-19T13:06:32.644Z,8.86
2022-10-19T13:09:06.713Z,9.49
2022-10-19T13:14:13.662Z,10.17
2022-10-19T13:16:57.672Z,10.26
2022-10-19T13:19:24.753Z,10.99
2022-10-19T13:22:22.740Z,11.71
2022-10-19T13:25:11.180Z,10.93
2022-10-19T13:27:39.438Z,11.19
2022-10-19T13:30:35.234Z,12.02
2022-10-19T13:33:23.586Z,11.95
2022-10-19T13:35:59.173Z,11.42
2022-10-19T13:38:46.996Z,11.10
2022-10-19T13:41:21.427Z,12.19
2022-10-19T13:44:09.308Z,11.69
2022-10-19T13:46:56.906Z,11.39
2022-10-19T13:49:55.016Z,11.32
2022-10-19T13:52:36.808Z,11.29
2022-10-19T13:55:20.741Z,11.36
2022-10-19T13:58:18.226Z,11.58
2022-10-19T14:00:53.748Z,12.57
2022-10-19T14:03:36.141Z,13.00
2022-10-19T14:06:35.752Z,13.70
2022-10-19T14:09:28.102Z,13.97
2022-10-19T14:12:21.565Z,13.41
2022-10-19T14:14:48.017Z,13.08
2022-10-19T14:17:19.737Z,12.17
2022-10-19T14:19:50.257Z,12.26
2022-10-19T14:22:23.441Z,12.08
2022-10-19T14:24:50.311Z,11.86
2022-10-19T14:27:23.100Z,11.85
2022-10-19T14:29:52.332Z,11.69
2022-10-19T14:32:25.644Z,12.12
2022-10-19T14:34:53.599Z,11.64
2022-10-19T14:37:26.406Z,11.20
2022-10-19T14:40:04.748Z,11.24
2022-10-19T14:42:41.069Z,11.35
2022-10-19T14:45:15.181Z,11.55
2022-10-19T14:48:03.199Z,11.49
2022-10-19T14:50:51.167Z,11.96
2022-10-19T14:53:36.131Z,12.94
2022-10-19T14:56:16.119Z,12.68
2022-10-19T14:59:07.460Z,13.59
2022-10-19T15:01:35.774Z,13.60
2022-10-19T15:04:03.038Z,13.72
2022-10-19T15:06:33.531Z,13.85
2022-10-19T15:09:04.960Z,14.26
2022-10-19T15:11:38.434Z,15.97
2022-10-19T15:14:14.026Z,15.60
2022-10-19T15:16:49.059Z,14.35
2022-10-19T15:19:17.726Z,14.98
2022-10-19T15:21:44.831Z,14.94
2022-10-19T15:24:27.944Z,15.44
2022-10-19T15:27:08.406Z,16.32
2022-10-19T15:29:35.757Z,15.89
2022-10-19T15:32:21.450Z,16.55
2022-10-19T15:34:48.071Z,16.28
2022-10-19T15:37:20.627Z,16.80
2022-10-19T15:39:48.199Z,16.62
2022-10-19T15:42:23.604Z,16.71
2022-10-19T15:44:50.068Z,16.04
2022-10-19T15:47:16.496Z,16.23
2022-10-19T15:49:42.912Z,16.39
2022-10-19T15:52:21.714Z,16.47
2022-10-19T15:54:53.507Z,16.12
2022-10-19T15:57:40.445Z,17.21
2022-10-19T16:00:14.012Z,17.04
2022-10-19T16:02:40.679Z,17.29
2022-10-19T16:05:07.965Z,17.36
2022-10-19T16:07:38.442Z,17.01
2022-10-19T16:10:06.179Z,16.80
2022-10-19T16:12:32.708Z,16.29
2022-10-19T16:14:59.200Z,15.99
2022-10-19T16:17:25.712Z,16.16
2022-10-19T16:19:52.212Z,17.18
2022-10-19T16:22:18.688Z,16.63
2022-10-19T16:24:45.157Z,16.40
2022-10-19T16:27:11.615Z,16.59
2022-10-19T16:29:38.112Z,16.98
2022-10-19T16:32:04.657Z,16.38
2022-10-19T16:34:31.235Z,16.80
2022-10-19T16:37:00.454Z,17.22
2022-10-19T16:39:29.245Z,18.25
2022-10-19T16:50:35.651Z,18.13
2022-10-19T16:53:10.051Z,18.23
2022-10-19T16:55:37.623Z,18.84
2022-10-19T16:58:04.140Z,18.62
2022-10-19T17:00:30.760Z,19.46
2022-10-19T17:02:57.465Z,18.98
2022-10-19T17:05:23.966Z,18.85
2022-10-19T17:07:50.449Z,20.16
2022-10-19T17:10:16.959Z,19.71
2022-10-19T17:12:43.475Z,21.11
2022-10-19T17:17:56.492Z,19.47
2022-10-19T17:20:22.938Z,19.22
2022-10-19T17:22:51.928Z,19.46
2022-10-19T17:25:18.454Z,19.49
2022-10-19T17:27:44.925Z,20.24
2022-10-19T17:30:11.424Z,19.92
2022-10-19T17:32:38.022Z,19.55
2022-10-19T17:35:04.982Z,20.13
2022-10-19T17:37:31.478Z,19.89
2022-10-19T17:39:57.973Z,20.34
2022-10-19T17:42:24.466Z,20.10
2022-10-19T17:44:51.105Z,20.37
2022-10-19T17:47:17.596Z,20.00
2022-10-19T17:49:44.074Z,20.78
2022-10-19T17:52:10.542Z,20.69
2022-10-19T17:54:48.534Z,20.88
2022-10-19T17:57:24.154Z,21.41
2022-10-19T17:59:53.310Z,20.57
2022-10-19T18:02:20.147Z,20.06
2022-10-19T18:04:46.804Z,20.33
2022-10-19T18:07:13.276Z,19.71
2022-10-19T18:09:39.751Z,19.86
2022-10-19T18:12:07.545Z,21.10
2022-10-19T18:14:34.301Z,20.55
2022-10-19T18:17:00.743Z,20.00
2022-10-19T18:19:27.334Z,19.57
2022-10-19T18:21:53.849Z,19.94
2022-10-19T18:24:20.466Z,20.21
2022-10-19T18:26:50.026Z,20.28
2022-10-19T18:29:20.203Z,20.51
2022-10-19T18:31:47.198Z,20.55
2022-10-19T18:34:15.341Z,20.70
2022-10-19T18:36:42.593Z,20.47
2022-10-19T18:39:11.628Z,20.18
2022-10-19T18:41:38.317Z,19.55
2022-10-19T18:44:06.162Z,19.47
2022-10-19T18:46:35.767Z,19.18
2022-10-19T18:49:05.259Z,19.85
2022-10-19T18:51:31.805Z,20.46
2022-10-19T18:53:58.803Z,19.66
2022-10-19T18:56:26.746Z,18.99
2022-10-19T18:58:53.290Z,19.51
2022-10-19T19:01:25.902Z,20.07
2022-10-19T19:03:55.030Z,19.20
2022-10-19T19:06:27.435Z,19.33
2022-10-19T19:08:55.605Z,18.88
2022-10-19T19:11:33.054Z,18.53
2022-10-19T19:14:06.852Z,18.40
2022-10-19T19:16:37.423Z,18.53
2022-10-19T19:19:05.252Z,18.22
2022-10-19T19:21:33.203Z,18.13
2022-10-19T19:24:02.096Z,18.05
2022-10-19T19:26:31.900Z,18.27
2022-10-19T19:28:58.928Z,17.81
2022-10-19T19:31:26.666Z,17.93
2022-10-19T19:33:53.219Z,18.04
2022-10-19T19:36:20.503Z,18.44
2022-10-19T19:38:47.602Z,17.64
2022-10-19T19:41:15.926Z,17.74
2022-10-19T19:43:43.550Z,18.10
2022-10-19T19:46:13.790Z,18.24
2022-10-19T19:48:42.367Z,17.44
2022-10-19T19:51:11.672Z,17.14
2022-10-19T19:53:38.661Z,16.88
2022-10-19T19:56:11.016Z,16.71
2022-10-19T19:58:37.662Z,16.66
2022-10-19T20:01:12.166Z,16.58
2022-10-19T20:03:42.848Z,15.96
2022-10-19T20:06:10.154Z,16.01
2022-10-19T20:08:37.095Z,15.62
2022-10-19T20:11:13.363Z,15.80
2022-10-19T20:13:40.527Z,14.45
2022-10-19T20:16:12.538Z,14.84
2022-10-19T20:18:40.447Z,14.38
2022-10-19T20:21:06.949Z,14.78
2022-10-19T20:23:33.410Z,15.01
2022-10-19T20:25:59.894Z,15.37
2022-10-19T20:28:27.341Z,15.46
2022-10-19T20:31:12.983Z,15.36
2022-10-19T20:33:42.341Z,15.00
2022-10-19T20:36:13.093Z,15.34
2022-10-19T20:38:44.630Z,15.64
2022-10-19T20:41:11.205Z,14.71
2022-10-19T20:43:37.984Z,14.61
2022-10-19T20:46:14.270Z,13.76
2022-10-19T20:48:40.843Z,13.72
2022-10-19T20:51:27.589Z,13.80
2022-10-19T20:53:59.265Z,13.43
2022-10-19T20:56:31.741Z,13.96
2022-10-19T20:59:04.760Z,14.31
2022-10-19T21:01:33.457Z,13.50
2022-10-19T21:04:02.152Z,13.07
2022-10-19T21:06:31.442Z,13.44
2022-10-19T21:08:58.851Z,13.66
2022-10-19T21:11:28.307Z,14.74
2022-10-19T21:13:57.164Z,14.07
2022-10-19T21:16:26.057Z,13.55
2022-10-19T21:18:52.559Z,13.97
2022-10-19T21:21:20.439Z,16.52
2022-10-19T21:23:50.450Z,17.10
2022-10-19T21:26:17.356Z,16.02
2022-10-19T21:28:49.678Z,15.40
2022-10-19T21:31:17.477Z,15.64
2022-10-19T21:33:44.426Z,16.05
2022-10-19T21:36:13.248Z,17.50
2022-10-19T21:38:40.608Z,17.84
2022-10-19T21:41:11.490Z,17.77
2022-10-19T21:43:38.025Z,16.93
2022-10-19T21:46:08.404Z,16.95
2022-10-19T21:48:34.922Z,18.18
2022-10-19T21:51:28.765Z,17.86
2022-10-19T21:53:55.352Z,17.71
2022-10-19T21:56:21.921Z,17.66
2022-10-19T21:58:50.676Z,19.06
2022-10-19T22:01:19.060Z,19.64
2022-10-19T22:03:45.612Z,20.69
2022-10-19T22:06:13.220Z,21.33
2022-10-19T22:08:44.869Z,21.30
2022-10-19T22:11:13.580Z,20.28
2022-10-19T22:13:40.133Z,20.31
2022-10-19T22:16:27.232Z,19.49
2022-10-19T22:18:54.906Z,19.78
2022-10-19T22:21:28.551Z,19.73
2022-10-19T22:23:58.053Z,20.49
2022-10-19T22:26:36.504Z,21.06
2022-10-19T22:29:04.876Z,20.67
2022-10-19T22:31:32.864Z,21.81
2022-10-19T22:34:04.228Z,21.65
2022-10-19T22:36:33.233Z,20.76
2022-10-19T22:38:59.830Z,21.34
2022-10-19T22:41:26.305Z,21.45
2022-10-19T22:44:30.615Z,20.60
2022-10-19T22:47:34.612Z,20.46
2022-10-19T22:50:38.327Z,20.39
2022-10-19T22:53:04.805Z,20.42
2022-10-19T22:55:31.438Z,21.11
2022-10-19T22:57:58.009Z,20.17
2022-10-19T23:00:24.755Z,20.85
2022-10-19T23:02:51.208Z,20.28
2022-10-19T23:05:17.925Z,19.74
2022-10-19T23:07:44.468Z,20.28
2022-10-19T23:10:10.969Z,21.30
2022-10-19T23:12:37.419Z,21.45
2022-10-19T23:15:04.214Z,22.28
2022-10-19T23:17:30.685Z,22.33
2022-10-19T23:19:57.186Z,21.60
2022-10-19T23:22:23.911Z,21.91
2022-10-19T23:24:50.404Z,21.65
2022-10-19T23:27:16.882Z,21.98
2022-10-19T23:29:43.383Z,22.01
2022-10-19T23:32:09.951Z,21.66
2022-10-19T23:34:36.444Z,21.33
2022-10-19T23:37:02.922Z,20.78
2022-10-19T23:39:29.376Z,21.18
2022-10-19T23:41:55.884Z,21.17
2022-10-19T23:44:22.343Z,20.86
2022-10-19T23:46:48.867Z,21.22
2022-10-19T23:49:15.324Z,21.37
2022-10-19T23:51:41.799Z,21.06
2022-10-19T23:54:08.297Z,21.23
2022-10-19T23:56:34.812Z,21.24
2022-10-19T23:59:01.399Z,21.57
